createdAt,value
2022-08-26T00:01:57.142Z,100.00
2022-08-26T00:04:25.765Z,100.00
2022-08-26T00:06:55.577Z,100.00
2022-08-26T00:09:28.755Z,100.00
2022-08-26T00:11:55.588Z,100.00
2022-08-26T00:14:30.789Z,100.00
2022-08-26T00:16:58.576Z,100.00
2022-08-26T00:19:28.183Z,100.00
2022-08-26T00:21:54.917Z,100.00
2022-08-26T00:24:22.889Z,100.00
2022-08-26T00:26:51.610Z,100.00
2022-08-26T00:29:22.479Z,100.00
2022-08-26T00:31:49.622Z,100.00
2022-08-26T00:34:19.260Z,100.00
2022-08-26T00:36:52.005Z,100.00
2022-08-26T00:39:20.364Z,100.00
2022-08-26T00:41:48.218Z,100.00
2022-08-26T00:44:15.065Z,100.00
2022-08-26T00:46:56.682Z,100.00
2022-08-26T00:49:36.561Z,100.00
2022-08-26T00:52:09.860Z,100.00
2022-08-26T00:54:50.041Z,100.00
2022-08-26T00:57:22.026Z,100.00
2022-08-26T00:59:58.285Z,100.00
2022-08-26T01:02:30.218Z,100.00
2022-08-26T01:05:00.743Z,100.00
2022-08-26T01:07:30.170Z,100.00
2022-08-26T01:10:00.257Z,100.00
2022-08-26T01:12:32.138Z,100.00
2022-08-26T01:14:59.328Z,100.00
2022-08-26T01:17:26.240Z,100.00
2022-08-26T01:20:01.346Z,100.00
2022-08-26T01:22:57.528Z,100.00
2022-08-26T01:25:28.115Z,100.00
2022-08-26T01:27:58.035Z,100.00
2022-08-26T01:30:27.936Z,100.00
2022-08-26T01:32:58.168Z,100.00
2022-08-26T01:35:25.210Z,100.00
2022-08-26T01:37:54.849Z,100.00
2022-08-26T01:40:26.346Z,100.00
2022-08-26T01:42:55.213Z,100.00
2022-08-26T01:45:29.507Z,100.00
2022-08-26T01:48:00.977Z,100.00
2022-08-26T01:50:36.770Z,100.00
2022-08-26T01:53:08.297Z,100.00
2022-08-26T01:55:38.304Z,100.00
2022-08-26T01:58:21.828Z,100.00
2022-08-26T02:00:49.278Z,100.00
2022-08-26T02:03:22.344Z,100.00
2022-08-26T02:05:59.416Z,100.00
2022-08-26T02:08:36.073Z,100.00
2022-08-26T02:11:02.980Z,100.00
2022-08-26T02:13:33.446Z,100.00
2022-08-26T02:16:06.387Z,100.00
2022-08-26T02:18:39.379Z,100.00
2022-08-26T02:21:14.821Z,100.00
2022-08-26T02:23:45.602Z,100.00
2022-08-26T02:26:23.773Z,100.00
2022-08-26T02:29:05.493Z,100.00
2022-08-26T02:31:36.313Z,100.00
2022-08-26T02:34:13.181Z,100.00
2022-08-26T02:36:42.861Z,100.00
2022-08-26T02:39:09.710Z,100.00
2022-08-26T02:41:44.927Z,100.00
2022-08-26T02:44:12.262Z,100.00
2022-08-26T02:46:39.278Z,100.00
2022-08-26T02:49:07.401Z,100.00
2022-08-26T02:51:34.428Z,100.00
2022-08-26T02:54:02.503Z,100.00
2022-08-26T02:56:35.553Z,100.00
2022-08-26T02:59:03.176Z,100.00
2022-08-26T03:01:34.756Z,100.00
2022-08-26T03:04:04.574Z,100.00
2022-08-26T03:06:33.477Z,100.00
2022-08-26T03:09:00.145Z,100.00
2022-08-26T03:11:32.249Z,100.00
2022-08-26T03:14:03.637Z,100.00
2022-08-26T03:16:38.494Z,100.00
2022-08-26T03:19:08.525Z,100.00
2022-08-26T03:21:37.196Z,100.00
2022-08-26T03:24:12.946Z,100.00
2022-08-26T03:26:39.952Z,100.00
2022-08-26T03:29:37.472Z,100.00
2022-08-26T03:32:06.226Z,100.00
2022-08-26T03:34:33.337Z,100.00
2022-08-26T03:37:00.183Z,100.00
2022-08-26T03:39:27.028Z,100.00
2022-08-26T03:41:54.388Z,100.00
2022-08-26T03:44:21.741Z,100.00
2022-08-26T03:46:48.526Z,100.00
2022-08-26T03:49:15.802Z,100.00
2022-08-26T03:51:42.425Z,100.00
2022-08-26T03:54:13.368Z,100.00
2022-08-26T03:56:42.854Z,100.00
2022-08-26T03:59:16.849Z,100.00
2022-08-26T04:01:43.502Z,100.00
2022-08-26T04:04:10.210Z,100.00
2022-08-26T04:06:44.653Z,100.00
2022-08-26T04:09:19.478Z,100.00
2022-08-26T04:11:50.712Z,100.00
2022-08-26T04:14:23.881Z,100.00
2022-08-26T04:19:32.958Z,100.00
2022-08-26T04:22:05.298Z,100.00
2022-08-26T04:24:36.312Z,100.00
2022-08-26T04:27:03.794Z,100.00
2022-08-26T04:29:31.142Z,100.00
2022-08-26T04:31:59.951Z,100.00
2022-08-26T04:34:29.091Z,100.00
2022-08-26T04:36:57.980Z,100.00
2022-08-26T04:39:27.937Z,100.00
2022-08-26T04:41:55.259Z,100.00
2022-08-26T04:44:22.927Z,100.00
2022-08-26T04:46:50.759Z,100.00
2022-08-26T04:49:17.554Z,100.00
2022-08-26T04:51:45.415Z,100.00
2022-08-26T04:54:12.102Z,100.00
2022-08-26T04:56:42.071Z,100.00
2022-08-26T04:59:17.085Z,100.00
2022-08-26T05:04:43.697Z,49.45
2022-08-26T05:07:11.215Z,50.31
2022-08-26T05:09:40.541Z,50.15
2022-08-26T05:12:08.081Z,48.88
2022-08-26T05:14:35.757Z,48.89
2022-08-26T05:17:02.914Z,47.34
2022-08-26T05:19:30.198Z,47.38
2022-08-26T05:21:56.860Z,49.29
2022-08-26T05:24:23.539Z,48.04
2022-08-26T05:26:50.198Z,47.05
2022-08-26T05:29:17.716Z,46.78
2022-08-26T05:31:44.658Z,44.18
2022-08-26T05:34:11.746Z,48.02
2022-08-26T05:36:38.944Z,47.02
2022-08-26T05:39:06.957Z,44.29
2022-08-26T05:41:38.379Z,45.57
2022-08-26T05:44:08.463Z,44.17
2022-08-26T05:46:36.720Z,44.64
2022-08-26T05:49:05.752Z,43.96
2022-08-26T05:51:32.864Z,42.29
2022-08-26T05:54:05.133Z,43.99
2022-08-26T05:56:31.922Z,43.67
2022-08-26T05:58:58.704Z,45.40
2022-08-26T06:01:28.597Z,45.67
2022-08-26T06:04:01.570Z,44.01
2022-08-26T06:06:31.869Z,44.46
2022-08-26T06:09:01.625Z,43.52
2022-08-26T06:11:30.584Z,43.65
2022-08-26T06:14:03.247Z,44.50
2022-08-26T06:16:35.209Z,45.16
2022-08-26T06:19:03.915Z,43.57
2022-08-26T06:21:40.215Z,43.63
2022-08-26T06:24:29.559Z,41.38
2022-08-26T06:27:02.352Z,41.60
2022-08-26T06:29:33.601Z,42.80
2022-08-26T06:32:01.941Z,42.88
2022-08-26T06:34:30.984Z,41.80
2022-08-26T06:36:59.880Z,42.19
2022-08-26T06:39:30.670Z,43.55
2022-08-26T06:44:41.039Z,46.08
2022-08-26T06:47:08.042Z,45.76
2022-08-26T06:49:38.163Z,46.45
2022-08-26T06:52:08.031Z,46.53
2022-08-26T06:54:35.521Z,46.39
2022-08-26T06:57:05.562Z,46.71
2022-08-26T06:59:37.052Z,47.32
2022-08-26T07:02:04.186Z,44.77
2022-08-26T07:04:34.836Z,46.84
2022-08-26T07:07:02.646Z,47.09
2022-08-26T07:09:35.490Z,45.89
2022-08-26T07:12:06.849Z,46.56
2022-08-26T07:14:34.742Z,46.30
2022-08-26T07:17:03.068Z,46.69
2022-08-26T07:19:30.730Z,48.50
2022-08-26T07:22:04.164Z,47.33
2022-08-26T07:24:33.694Z,42.37
2022-08-26T07:27:06.110Z,42.22
2022-08-26T07:29:34.669Z,42.66
2022-08-26T07:32:01.642Z,43.69
2022-08-26T07:34:29.625Z,45.12
2022-08-26T07:36:57.135Z,43.26
2022-08-26T07:39:26.983Z,43.50
2022-08-26T07:41:54.146Z,42.63
2022-08-26T07:44:21.891Z,44.12
2022-08-26T07:46:53.376Z,41.82
2022-08-26T07:49:23.377Z,43.77
2022-08-26T07:51:51.279Z,42.19
2022-08-26T07:54:19.235Z,41.65
2022-08-26T07:56:48.302Z,41.50
2022-08-26T07:59:20.024Z,41.44
2022-08-26T08:01:48.115Z,40.88
2022-08-26T08:04:17.916Z,42.46
2022-08-26T08:06:46.339Z,41.86
2022-08-26T08:09:16.047Z,40.28
2022-08-26T08:11:45.466Z,38.82
2022-08-26T08:14:13.325Z,38.31
2022-08-26T08:16:45.847Z,39.66
2022-08-26T08:19:15.211Z,39.36
2022-08-26T08:21:43.585Z,39.84
2022-08-26T08:24:11.707Z,38.32
2022-08-26T08:26:39.315Z,39.62
2022-08-26T08:29:08.916Z,38.43
2022-08-26T08:31:56.611Z,38.48
2022-08-26T08:34:23.454Z,38.03
2022-08-26T08:36:53.310Z,37.71
2022-08-26T08:39:21.952Z,39.79
2022-08-26T08:41:48.934Z,39.78
2022-08-26T08:44:42.868Z,37.88
2022-08-26T08:47:25.895Z,39.60
2022-08-26T08:50:04.730Z,40.53
2022-08-26T08:52:35.923Z,39.08
2022-08-26T08:55:11.034Z,40.64
2022-08-26T08:57:56.180Z,40.88
2022-08-26T09:00:39.751Z,41.95
2022-08-26T09:03:25.682Z,42.03
2022-08-26T09:05:53.471Z,42.97
2022-08-26T09:08:28.792Z,43.20
2022-08-26T09:11:04.203Z,42.13
2022-08-26T09:13:31.523Z,42.53
2022-08-26T09:16:15.887Z,44.13
2022-08-26T09:18:57.773Z,43.87
2022-08-26T09:21:25.890Z,44.30
2022-08-26T09:23:58.174Z,44.64
2022-08-26T09:26:42.651Z,43.70
2022-08-26T09:31:45.796Z,45.37
2022-08-26T09:34:25.284Z,45.73
2022-08-26T09:36:51.944Z,45.05
2022-08-26T09:39:27.763Z,43.75
2022-08-26T09:42:06.814Z,43.73
2022-08-26T09:44:35.813Z,42.87
2022-08-26T09:47:13.294Z,42.54
2022-08-26T09:49:41.275Z,41.18
2022-08-26T09:52:07.876Z,41.50
2022-08-26T09:54:36.668Z,40.50
2022-08-26T09:57:28.070Z,40.71
2022-08-26T09:59:56.054Z,42.53
2022-08-26T10:02:31.934Z,41.00
2022-08-26T10:05:09.115Z,43.44
2022-08-26T10:07:52.136Z,42.47
2022-08-26T10:10:48.857Z,42.88
2022-08-26T10:13:27.110Z,43.01
2022-08-26T10:16:11.089Z,42.81
2022-08-26T10:18:44.249Z,44.80
2022-08-26T10:21:34.428Z,44.44
2022-08-26T10:24:05.221Z,44.53
2022-08-26T10:26:50.692Z,45.82
2022-08-26T10:29:40.872Z,45.08
2022-08-26T10:32:16.621Z,42.74
2022-08-26T10:34:43.947Z,43.74
2022-08-26T10:37:23.977Z,45.04
2022-08-26T10:40:02.385Z,44.55
2022-08-26T10:42:42.019Z,44.46
2022-08-26T10:45:20.367Z,42.69
2022-08-26T10:47:59.349Z,43.60
2022-08-26T10:50:53.295Z,43.16
2022-08-26T10:53:25.420Z,43.79
2022-08-26T10:56:02.217Z,41.08
2022-08-26T10:58:30.846Z,41.23
2022-08-26T11:01:33.757Z,42.11
2022-08-26T11:04:25.918Z,42.12
2022-08-26T11:07:31.747Z,43.82
2022-08-26T11:10:05.128Z,48.51
2022-08-26T11:12:34.771Z,53.62
2022-08-26T11:15:14.384Z,53.21
2022-08-26T11:17:46.062Z,53.16
2022-08-26T11:20:27.726Z,54.49
2022-08-26T11:22:56.824Z,56.93
2022-08-26T11:25:32.561Z,55.95
2022-08-26T11:28:04.407Z,61.34
2022-08-26T11:30:33.869Z,63.65
2022-08-26T11:33:01.215Z,64.92
2022-08-26T11:35:48.848Z,59.78
2022-08-26T11:38:20.276Z,60.92
2022-08-26T11:41:07.517Z,62.13
2022-08-26T11:43:35.518Z,59.23
2022-08-26T11:46:09.322Z,59.13
2022-08-26T11:49:01.369Z,59.00
2022-08-26T11:51:28.335Z,59.33
2022-08-26T11:54:12.435Z,57.48
2022-08-26T11:56:44.433Z,54.91
2022-08-26T11:59:15.747Z,55.69
2022-08-26T12:01:45.610Z,54.76
2022-08-26T12:04:40.456Z,53.30
2022-08-26T12:07:08.969Z,51.61
2022-08-26T12:09:50.262Z,52.36
2022-08-26T12:12:39.560Z,53.33
2022-08-26T12:15:14.883Z,51.13
2022-08-26T12:17:44.483Z,50.81
2022-08-26T12:20:31.732Z,50.49
2022-08-26T12:23:00.919Z,50.37
2022-08-26T12:25:28.221Z,50.99
2022-08-26T12:28:05.750Z,49.97
2022-08-26T12:30:35.321Z,49.05
2022-08-26T12:33:23.032Z,50.63
2022-08-26T12:35:54.762Z,50.64
2022-08-26T12:38:25.309Z,51.14
2022-08-26T12:40:54.011Z,49.23
2022-08-26T12:43:41.529Z,49.07
2022-08-26T12:46:12.726Z,49.13
2022-08-26T12:48:45.393Z,48.94
2022-08-26T12:51:31.812Z,48.85
2022-08-26T12:54:00.641Z,48.43
2022-08-26T12:56:40.191Z,47.31
2022-08-26T12:59:26.224Z,48.43
2022-08-26T13:01:58.545Z,47.80
2022-08-26T13:04:39.130Z,47.15
2022-08-26T13:07:16.573Z,46.55
2022-08-26T13:09:44.196Z,46.84
2022-08-26T13:12:15.064Z,47.31
2022-08-26T13:14:41.741Z,47.87
2022-08-26T13:17:08.530Z,47.62
2022-08-26T13:19:38.173Z,47.38
2022-08-26T13:22:06.165Z,48.50
2022-08-26T13:24:54.818Z,48.28
2022-08-26T13:27:24.308Z,46.87
2022-08-26T13:29:51.621Z,48.46
2022-08-26T13:32:20.958Z,46.61
2022-08-26T13:34:51.361Z,46.87
2022-08-26T13:37:24.528Z,47.53
2022-08-26T13:40:05.407Z,45.91
2022-08-26T13:42:32.152Z,47.88
2022-08-26T13:45:02.017Z,46.11
2022-08-26T13:47:31.847Z,45.01
2022-08-26T13:49:58.568Z,46.54
2022-08-26T13:52:30.622Z,45.83
2022-08-26T13:55:00.331Z,45.83
2022-08-26T13:57:30.235Z,43.31
2022-08-26T13:59:59.138Z,45.38
2022-08-26T14:02:29.033Z,44.18
2022-08-26T14:04:56.078Z,43.39
2022-08-26T14:07:23.115Z,41.75
2022-08-26T14:09:50.349Z,44.98
2022-08-26T14:12:17.425Z,43.79
2022-08-26T14:14:45.285Z,43.77
2022-08-26T14:17:22.235Z,46.00
2022-08-26T14:19:50.745Z,44.04
2022-08-26T14:22:20.221Z,45.31
2022-08-26T14:24:51.164Z,47.09
2022-08-26T14:27:17.854Z,46.53
2022-08-26T14:29:44.960Z,43.13
2022-08-26T14:32:26.183Z,43.83
2022-08-26T14:34:53.838Z,45.33
2022-08-26T14:37:22.578Z,45.84
2022-08-26T14:39:49.619Z,46.24
2022-08-26T14:42:22.837Z,46.84
2022-08-26T14:44:55.308Z,45.46
2022-08-26T14:47:22.468Z,43.61
2022-08-26T14:49:49.228Z,43.79
2022-08-26T14:52:17.284Z,41.93
2022-08-26T14:54:44.514Z,42.92
2022-08-26T14:57:13.601Z,43.45
2022-08-26T14:59:49.955Z,44.58
2022-08-26T15:02:33.239Z,42.79
2022-08-26T15:05:02.338Z,44.95
2022-08-26T15:07:29.074Z,46.75
2022-08-26T15:10:03.231Z,45.74
2022-08-26T15:12:29.979Z,44.84
2022-08-26T15:14:56.661Z,44.42
2022-08-26T15:17:23.606Z,44.68
2022-08-26T15:19:57.977Z,42.31
2022-08-26T15:22:24.817Z,45.16
2022-08-26T15:24:58.336Z,44.34
2022-08-26T15:27:25.057Z,44.52
2022-08-26T15:29:51.934Z,44.78
2022-08-26T15:32:21.345Z,44.16
2022-08-26T15:34:50.035Z,43.73
2022-08-26T15:37:16.938Z,43.17
2022-08-26T15:39:44.814Z,43.07
2022-08-26T15:42:14.217Z,44.87
2022-08-26T15:44:47.787Z,43.58
2022-08-26T15:47:14.470Z,43.76
2022-08-26T15:49:41.221Z,44.63
2022-08-26T15:52:09.486Z,44.88
2022-08-26T15:54:36.694Z,45.58
2022-08-26T15:57:04.693Z,45.80
2022-08-26T15:59:32.967Z,45.17
2022-08-26T16:02:04.104Z,44.14
2022-08-26T16:04:31.722Z,44.02
2022-08-26T16:06:58.726Z,44.59
2022-08-26T16:09:27.206Z,44.61
2022-08-26T16:11:55.260Z,44.52
2022-08-26T16:14:22.687Z,44.75
2022-08-26T16:16:49.595Z,45.39
2022-08-26T16:19:17.226Z,46.05
2022-08-26T16:21:45.494Z,46.42
2022-08-26T16:24:12.992Z,47.06
2022-08-26T16:26:42.705Z,46.76
2022-08-26T16:29:12.623Z,47.46
2022-08-26T16:31:40.197Z,47.93
2022-08-26T16:34:08.015Z,47.43
2022-08-26T16:36:37.706Z,46.05
2022-08-26T16:39:07.342Z,46.79
2022-08-26T16:41:35.413Z,46.33
2022-08-26T16:44:08.873Z,47.14
2022-08-26T16:46:36.145Z,47.10
2022-08-26T16:49:06.290Z,46.96
2022-08-26T16:51:38.051Z,47.53
2022-08-26T16:54:12.291Z,49.56
2022-08-26T16:56:39.347Z,50.01
2022-08-26T16:59:19.927Z,49.35
2022-08-26T17:01:50.620Z,49.32
2022-08-26T17:04:19.618Z,50.23
2022-08-26T17:06:46.591Z,50.59
2022-08-26T17:09:14.517Z,49.67
2022-08-26T17:11:41.597Z,50.57
2022-08-26T17:14:08.382Z,50.52
2022-08-26T17:16:35.165Z,49.83
2022-08-26T17:19:04.910Z,50.19
2022-08-26T17:21:34.865Z,50.55
2022-08-26T17:24:02.101Z,51.29
2022-08-26T17:26:29.347Z,51.35
2022-08-26T17:28:56.002Z,51.49
2022-08-26T17:31:24.241Z,51.25
2022-08-26T17:33:53.475Z,51.52
2022-08-26T17:36:27.498Z,51.48
2022-08-26T17:38:58.655Z,51.06
2022-08-26T17:41:28.180Z,50.75
2022-08-26T17:43:54.989Z,51.02
2022-08-26T17:46:23.562Z,51.20
2022-08-26T17:48:50.555Z,51.77
2022-08-26T17:51:19.580Z,52.33
2022-08-26T17:53:48.099Z,52.26
2022-08-26T17:56:21.061Z,52.18
2022-08-26T17:58:51.847Z,52.40
2022-08-26T18:01:22.426Z,52.31
2022-08-26T18:06:30.809Z,53.47
2022-08-26T18:09:07.528Z,54.73
2022-08-26T18:11:34.253Z,54.72
2022-08-26T18:14:05.032Z,52.36
2022-08-26T18:16:34.774Z,52.19
2022-08-26T18:19:01.427Z,49.92
2022-08-26T18:21:28.397Z,48.55
2022-08-26T18:23:57.521Z,48.62
2022-08-26T18:26:26.207Z,48.91
2022-08-26T18:28:53.970Z,48.75
2022-08-26T18:31:31.348Z,48.60
2022-08-26T18:34:00.609Z,48.86
2022-08-26T18:36:33.857Z,47.81
2022-08-26T18:39:01.497Z,47.15
2022-08-26T18:41:30.781Z,47.38
2022-08-26T18:43:58.204Z,47.63
2022-08-26T18:46:26.566Z,48.50
2022-08-26T18:48:56.913Z,48.84
2022-08-26T18:51:26.943Z,48.49
2022-08-26T18:53:53.639Z,48.76
2022-08-26T18:56:20.528Z,48.61
2022-08-26T18:58:53.077Z,49.19
2022-08-26T19:01:27.523Z,50.02
2022-08-26T19:03:56.416Z,50.37
2022-08-26T19:06:25.711Z,50.76
2022-08-26T19:08:53.165Z,51.57
2022-08-26T19:11:43.011Z,50.44
2022-08-26T19:14:14.148Z,50.59
2022-08-26T19:16:44.116Z,49.30
2022-08-26T19:19:11.141Z,50.73
2022-08-26T19:21:38.763Z,49.44
2022-08-26T19:24:09.932Z,50.87
2022-08-26T19:26:38.979Z,50.02
2022-08-26T19:29:07.490Z,50.94
2022-08-26T19:31:37.432Z,51.25
2022-08-26T19:34:07.850Z,50.64
2022-08-26T19:36:35.392Z,49.77
2022-08-26T19:39:06.401Z,50.15
2022-08-26T19:41:39.222Z,48.01
2022-08-26T19:44:13.622Z,48.97
2022-08-26T19:46:40.786Z,49.08
2022-08-26T19:49:12.785Z,47.90
2022-08-26T19:51:48.457Z,47.02
2022-08-26T19:54:16.412Z,46.79
2022-08-26T19:56:45.001Z,47.33
2022-08-26T19:59:15.044Z,46.78
2022-08-26T20:01:42.649Z,47.52
2022-08-26T20:04:09.549Z,47.53
2022-08-26T20:06:36.189Z,47.18
2022-08-26T20:09:02.922Z,47.87
2022-08-26T20:11:32.840Z,47.46
2022-08-26T20:13:59.757Z,47.57
2022-08-26T20:16:26.537Z,47.78
2022-08-26T20:19:15.152Z,47.69
2022-08-26T20:21:42.558Z,47.28
2022-08-26T20:24:16.133Z,47.24
2022-08-26T20:26:44.883Z,47.71
2022-08-26T20:29:18.585Z,47.54
2022-08-26T20:31:48.307Z,48.50
2022-08-26T20:34:18.457Z,49.07
2022-08-26T20:36:49.628Z,48.75
2022-08-26T20:39:18.862Z,48.40
2022-08-26T20:41:45.628Z,47.89
2022-08-26T20:44:13.929Z,48.31
2022-08-26T20:46:41.253Z,48.28
2022-08-26T20:49:12.032Z,48.66
2022-08-26T20:51:43.297Z,48.76
2022-08-26T20:54:12.570Z,50.34
2022-08-26T20:56:40.928Z,50.71
2022-08-26T20:59:08.050Z,51.39
2022-08-26T21:01:42.107Z,51.32
2022-08-26T21:04:30.891Z,51.45
2022-08-26T21:06:58.586Z,51.93
2022-08-26T21:09:27.412Z,51.81
2022-08-26T21:11:55.570Z,51.82
2022-08-26T21:14:25.743Z,51.58
2022-08-26T21:16:53.293Z,51.29
2022-08-26T21:19:20.275Z,51.47
2022-08-26T21:21:49.453Z,51.25
2022-08-26T21:24:17.001Z,51.59
2022-08-26T21:26:44.199Z,52.56
2022-08-26T21:29:13.731Z,54.01
2022-08-26T21:31:45.648Z,55.13
2022-08-26T21:34:16.277Z,54.75
2022-08-26T21:36:43.239Z,55.19
2022-08-26T21:39:12.000Z,56.26
2022-08-26T21:41:40.982Z,56.30
2022-08-26T21:44:08.234Z,54.58
2022-08-26T21:46:39.352Z,55.77
2022-08-26T21:49:12.406Z,56.81
2022-08-26T21:51:49.022Z,56.44
2022-08-26T21:54:18.267Z,55.10
2022-08-26T21:56:54.537Z,56.24
2022-08-26T21:59:22.288Z,56.66
2022-08-26T22:01:51.831Z,56.94
2022-08-26T22:04:18.509Z,56.36
2022-08-26T22:06:53.546Z,57.50
2022-08-26T22:09:23.770Z,57.22
2022-08-26T22:11:51.860Z,56.93
2022-08-26T22:14:27.353Z,56.82
2022-08-26T22:16:58.415Z,57.22
2022-08-26T22:19:32.799Z,57.97
2022-08-26T22:22:08.025Z,57.16
2022-08-26T22:24:35.314Z,58.76
2022-08-26T22:27:04.398Z,60.16
2022-08-26T22:29:32.292Z,60.25
2022-08-26T22:32:00.061Z,61.52
2022-08-26T22:34:29.523Z,60.77
2022-08-26T22:36:56.457Z,60.42
2022-08-26T22:39:24.784Z,61.05
2022-08-26T22:41:57.231Z,61.05
2022-08-26T22:44:24.041Z,62.00
2022-08-26T22:46:54.218Z,62.50
2022-08-26T22:49:21.641Z,62.20
2022-08-26T22:51:48.666Z,61.60
2022-08-26T22:54:16.554Z,60.84
2022-08-26T22:56:44.942Z,57.80
2022-08-26T22:59:13.407Z,58.87
2022-08-26T23:01:43.586Z,58.96
2022-08-26T23:04:11.159Z,57.64
2022-08-26T23:06:40.669Z,57.25
2022-08-26T23:09:11.039Z,55.26
2022-08-26T23:11:42.268Z,55.74
2022-08-26T23:14:09.122Z,55.29
2022-08-26T23:16:39.520Z,55.04
2022-08-26T23:19:16.273Z,55.13
2022-08-26T23:21:46.406Z,54.62
2022-08-26T23:24:13.957Z,54.28
2022-08-26T23:26:42.330Z,54.86
2022-08-26T23:29:11.334Z,54.76
2022-08-26T23:31:45.581Z,54.94
2022-08-26T23:34:31.471Z,54.27
2022-08-26T23:36:59.239Z,54.39
2022-08-26T23:39:29.116Z,55.56
2022-08-26T23:41:57.056Z,53.32
2022-08-26T23:44:29.550Z,53.68
2022-08-26T23:46:58.927Z,53.60
2022-08-26T23:49:30.233Z,53.15
2022-08-26T23:52:17.245Z,53.49
2022-08-26T23:54:47.679Z,54.01
2022-08-26T23:57:16.032Z,53.74
2022-08-26T23:59:44.469Z,54.41
